createdAt,value
2023-02-16T02:38:03.766Z,75.80
2023-02-16T02:40:45.412Z,75.64
2023-02-16T02:43:28.086Z,75.81
2023-02-16T02:46:35.182Z,75.87
2023-02-16T02:49:02.129Z,75.73
2023-02-16T02:51:29.053Z,75.68
2023-02-16T02:54:20.651Z,75.56
2023-02-16T02:57:11.475Z,75.88
2023-02-16T03:00:02.653Z,76.21
2023-02-16T03:02:31.646Z,75.98
2023-02-16T03:05:00.528Z,75.53
2023-02-16T03:07:46.821Z,75.62
2023-02-16T03:10:39.314Z,75.80
2023-02-16T03:13:12.476Z,76.24
2023-02-16T03:15:41.089Z,75.73
2023-02-16T03:18:29.541Z,76.10
2023-02-16T03:21:16.037Z,76.41
2023-02-16T03:24:04.352Z,76.09
2023-02-16T03:26:51.644Z,76.03
2023-02-16T03:29:22.667Z,76.56
2023-02-16T03:31:52.666Z,76.00
2023-02-16T03:34:21.271Z,76.06
2023-02-16T03:36:51.814Z,76.27
2023-02-16T03:39:18.795Z,76.30
2023-02-16T03:41:51.411Z,76.54
2023-02-16T03:44:18.343Z,76.32
2023-02-16T03:46:45.752Z,76.53
2023-02-16T03:49:12.502Z,76.16
2023-02-16T03:51:39.277Z,76.02
2023-02-16T03:54:06.016Z,76.48
2023-02-16T03:56:32.735Z,76.54
2023-02-16T03:58:59.486Z,76.38
2023-02-16T04:01:26.426Z,76.28
2023-02-16T04:03:53.170Z,76.20
2023-02-16T04:06:19.987Z,76.09
2023-02-16T04:08:46.853Z,75.92
2023-02-16T04:11:32.263Z,75.97
2023-02-16T04:13:59.091Z,76.30
2023-02-16T04:16:25.888Z,75.99
2023-02-16T04:18:52.614Z,75.92
2023-02-16T04:21:19.339Z,75.95
2023-02-16T04:23:45.969Z,76.24
2023-02-16T04:26:12.751Z,75.64
2023-02-16T04:28:39.503Z,75.74
2023-02-16T04:31:06.498Z,75.72
2023-02-16T04:33:33.541Z,75.69
2023-02-16T04:36:00.528Z,75.94
2023-02-16T04:38:27.223Z,75.59
2023-02-16T04:40:54.092Z,76.08
2023-02-16T04:43:20.821Z,75.66
2023-02-16T04:45:47.445Z,76.02
2023-02-16T04:48:14.303Z,75.59
2023-02-16T04:50:41.120Z,75.61
2023-02-16T04:53:07.807Z,75.51
2023-02-16T04:55:34.799Z,75.83
2023-02-16T04:58:01.823Z,75.50
2023-02-16T05:00:28.472Z,75.40
2023-02-16T05:02:55.248Z,75.69
2023-02-16T05:05:22.105Z,75.86
2023-02-16T05:07:48.750Z,75.48
2023-02-16T05:10:15.472Z,75.30
2023-02-16T05:13:00.661Z,75.58
2023-02-16T05:15:27.386Z,75.50
2023-02-16T05:17:54.223Z,75.61
2023-02-16T05:20:41.034Z,75.20
2023-02-16T05:23:07.771Z,75.66
2023-02-16T05:25:34.397Z,75.26
2023-02-16T05:28:01.189Z,75.49
2023-02-16T05:30:28.148Z,75.26
2023-02-16T05:32:54.765Z,75.78
2023-02-16T05:35:21.641Z,75.71
2023-02-16T05:37:48.655Z,75.13
2023-02-16T05:40:15.300Z,75.50
2023-02-16T05:42:42.140Z,75.17
2023-02-16T05:45:09.408Z,75.17
2023-02-16T05:47:36.091Z,75.19
2023-02-16T05:50:02.872Z,75.35
2023-02-16T05:52:29.889Z,75.44
2023-02-16T05:54:56.518Z,75.20
2023-02-16T05:57:23.390Z,75.08
2023-02-16T05:59:50.146Z,74.97
2023-02-16T06:02:16.775Z,75.38
2023-02-16T06:04:44.003Z,75.36
2023-02-16T06:07:11.597Z,75.15
2023-02-16T06:09:39.352Z,74.99
2023-02-16T06:12:06.614Z,75.22
2023-02-16T06:14:33.482Z,75.25
2023-02-16T06:17:02.518Z,75.08
2023-02-16T06:19:29.397Z,75.26
2023-02-16T06:21:56.222Z,74.98
2023-02-16T06:24:22.850Z,74.91
2023-02-16T06:26:49.628Z,75.35
2023-02-16T06:29:16.361Z,74.83
2023-02-16T06:31:43.315Z,74.90
2023-02-16T06:34:10.651Z,75.27
2023-02-16T06:36:37.518Z,75.18
2023-02-16T06:39:04.645Z,74.91
2023-02-16T06:41:31.828Z,74.84
2023-02-16T06:44:00.615Z,74.86
2023-02-16T06:46:27.830Z,75.22
2023-02-16T06:48:54.618Z,74.76
2023-02-16T06:51:21.727Z,75.00
2023-02-16T06:53:49.292Z,75.07
2023-02-16T06:56:16.153Z,75.18
2023-02-16T06:58:42.934Z,74.89
2023-02-16T07:01:09.759Z,75.06
2023-02-16T07:03:36.731Z,75.17
2023-02-16T07:06:03.774Z,74.87
2023-02-16T07:08:30.446Z,75.18
2023-02-16T07:10:57.190Z,75.37
2023-02-16T07:13:23.871Z,74.99
2023-02-16T07:15:50.753Z,75.06
2023-02-16T07:18:17.452Z,74.97
2023-02-16T07:20:44.330Z,74.92
2023-02-16T07:23:11.034Z,75.04
2023-02-16T07:25:37.928Z,75.17
2023-02-16T07:28:04.680Z,74.90
2023-02-16T07:30:31.511Z,75.15
2023-02-16T07:32:58.266Z,74.96
2023-02-16T07:35:25.325Z,75.14
2023-02-16T07:37:52.098Z,75.25
2023-02-16T07:40:18.900Z,74.88
2023-02-16T07:42:45.685Z,75.22
2023-02-16T07:45:12.577Z,74.94
2023-02-16T07:47:39.417Z,75.22
2023-02-16T07:50:06.884Z,74.91
2023-02-16T07:52:37.235Z,74.96
2023-02-16T07:55:05.396Z,75.12
2023-02-16T07:57:32.328Z,74.88
2023-02-16T07:59:59.086Z,75.16
2023-02-16T08:02:27.930Z,75.21
2023-02-16T08:04:55.201Z,74.50
2023-02-16T08:07:22.744Z,74.72
2023-02-16T08:09:49.870Z,74.80
2023-02-16T08:12:17.360Z,74.59
2023-02-16T08:14:46.677Z,75.08
2023-02-16T08:17:14.206Z,74.75
2023-02-16T08:19:41.205Z,74.95
2023-02-16T08:22:08.943Z,75.00
2023-02-16T08:24:36.018Z,75.19
2023-02-16T08:27:04.761Z,75.09
2023-02-16T08:29:32.890Z,75.05
2023-02-16T08:32:00.712Z,75.09
2023-02-16T08:34:27.568Z,74.69
2023-02-16T08:36:56.816Z,75.18
2023-02-16T08:39:26.628Z,74.95
2023-02-16T08:41:54.123Z,74.86
2023-02-16T08:44:23.740Z,75.19
2023-02-16T08:46:52.832Z,74.96
2023-02-16T08:49:21.926Z,74.77
2023-02-16T08:51:52.362Z,74.90
2023-02-16T08:54:24.421Z,75.24
2023-02-16T08:56:51.161Z,74.84
2023-02-16T08:59:19.930Z,75.14
2023-02-16T09:01:47.508Z,74.97
2023-02-16T09:04:15.316Z,74.90
2023-02-16T09:06:44.804Z,75.33
2023-02-16T09:09:13.186Z,75.04
2023-02-16T09:11:41.109Z,74.96
2023-02-16T09:14:09.325Z,74.88
2023-02-16T09:16:39.721Z,75.04
2023-02-16T09:19:07.214Z,75.18
2023-02-16T09:21:34.272Z,75.38
2023-02-16T09:24:05.435Z,75.40
2023-02-16T09:26:34.547Z,75.32
2023-02-16T09:29:02.258Z,75.34
2023-02-16T09:31:32.585Z,74.84
2023-02-16T09:34:19.538Z,75.14
2023-02-16T09:36:47.543Z,74.69
2023-02-16T09:39:17.082Z,74.69
2023-02-16T09:41:58.024Z,75.13
2023-02-16T09:44:33.614Z,75.19
2023-02-16T09:47:05.074Z,74.96
2023-02-16T09:49:37.949Z,74.94
2023-02-16T09:52:24.623Z,74.99
2023-02-16T09:54:58.354Z,75.00
2023-02-16T09:57:57.982Z,74.72
2023-02-16T10:00:33.488Z,75.14
2023-02-16T10:03:32.169Z,74.84
2023-02-16T10:06:14.030Z,74.69
2023-02-16T10:08:45.850Z,74.64
2023-02-16T10:11:33.333Z,74.82
2023-02-16T10:14:08.285Z,74.87
2023-02-16T10:16:41.460Z,74.49
2023-02-16T10:19:38.877Z,74.33
2023-02-16T10:22:13.109Z,74.41
2023-02-16T10:24:52.157Z,74.52
2023-02-16T10:27:21.823Z,74.62
2023-02-16T10:29:48.772Z,74.50
2023-02-16T10:32:33.965Z,74.38
2023-02-16T10:35:17.562Z,74.80
2023-02-16T10:37:59.238Z,74.76
2023-02-16T10:40:53.774Z,74.65
2023-02-16T10:43:42.314Z,74.84
2023-02-16T10:46:12.927Z,74.35
2023-02-16T10:48:39.558Z,74.43
2023-02-16T10:51:12.855Z,74.24
2023-02-16T10:54:12.119Z,74.81
2023-02-16T10:56:45.676Z,74.51
2023-02-16T10:59:24.112Z,74.90
2023-02-16T11:01:57.666Z,74.86
2023-02-16T11:04:39.844Z,74.87
2023-02-16T11:07:11.968Z,75.36
2023-02-16T11:09:41.038Z,75.33
2023-02-16T11:12:39.568Z,75.71
2023-02-16T11:15:16.749Z,75.70
2023-02-16T11:18:04.972Z,75.16
2023-02-16T11:20:45.166Z,75.28
2023-02-16T11:23:17.776Z,75.27
2023-02-16T11:26:17.070Z,75.07
2023-02-16T11:28:46.004Z,75.12
2023-02-16T11:31:32.033Z,75.48
2023-02-16T11:34:06.768Z,75.39
2023-02-16T11:36:43.185Z,76.01
2023-02-16T11:39:23.039Z,75.48
2023-02-16T11:41:53.734Z,75.52
2023-02-16T11:44:31.561Z,75.71
2023-02-16T11:47:00.762Z,75.90
2023-02-16T11:50:20.355Z,75.58
2023-02-16T11:52:49.742Z,76.16
2023-02-16T11:55:33.464Z,76.08
2023-02-16T11:58:30.154Z,76.58
2023-02-16T12:01:11.433Z,76.00
2023-02-16T12:04:04.680Z,76.07
2023-02-16T12:06:47.258Z,75.97
2023-02-16T12:09:24.403Z,76.01
2023-02-16T12:12:23.108Z,75.93
2023-02-16T12:15:06.989Z,76.10
2023-02-16T12:17:59.265Z,76.41
2023-02-16T12:20:47.492Z,76.37
2023-02-16T12:23:38.487Z,76.91
2023-02-16T12:26:44.605Z,76.78
2023-02-16T12:29:21.794Z,76.24
2023-02-16T12:32:17.770Z,76.22
2023-02-16T12:34:45.022Z,76.09
2023-02-16T12:37:15.529Z,76.00
2023-02-16T12:40:00.553Z,76.26
2023-02-16T12:42:51.041Z,76.09
2023-02-16T12:45:25.068Z,76.17
2023-02-16T12:47:57.726Z,75.95
2023-02-16T12:50:29.403Z,75.84
2023-02-16T12:53:07.233Z,75.61
2023-02-16T12:55:43.375Z,75.57
2023-02-16T12:58:16.313Z,75.93
2023-02-16T13:00:49.794Z,75.48
2023-02-16T13:03:30.282Z,75.25
2023-02-16T13:06:08.298Z,75.90
2023-02-16T13:08:56.181Z,75.66
2023-02-16T13:11:34.748Z,75.45
2023-02-16T13:14:06.408Z,75.33
2023-02-16T13:16:39.295Z,75.19
2023-02-16T13:19:06.143Z,74.99
2023-02-16T13:21:54.021Z,74.83
2023-02-16T13:24:57.512Z,74.59
2023-02-16T13:27:51.935Z,73.59
2023-02-16T13:30:37.532Z,73.71
2023-02-16T13:33:19.792Z,73.39
2023-02-16T13:35:57.408Z,73.93
2023-02-16T13:39:05.366Z,73.62
2023-02-16T13:41:43.169Z,73.45
2023-02-16T13:44:17.006Z,73.46
2023-02-16T13:46:50.064Z,72.86
2023-02-16T13:49:32.449Z,72.79
2023-02-16T13:52:00.631Z,73.11
2023-02-16T13:54:34.520Z,73.00
2023-02-16T13:57:05.944Z,72.51
2023-02-16T13:59:36.695Z,72.50
2023-02-16T14:02:11.105Z,72.37
2023-02-16T14:04:38.108Z,72.38
2023-02-16T14:07:07.004Z,72.30
2023-02-16T14:09:54.013Z,71.99
2023-02-16T14:12:31.411Z,71.85
2023-02-16T14:15:04.637Z,71.48
2023-02-16T14:17:36.279Z,71.51
2023-02-16T14:20:09.249Z,71.15
2023-02-16T14:22:54.487Z,70.71
2023-02-16T14:25:24.123Z,71.21
2023-02-16T14:27:52.063Z,71.22
2023-02-16T14:30:29.323Z,70.73
2023-02-16T14:33:22.737Z,70.48
2023-02-16T14:35:58.782Z,70.40
2023-02-16T14:38:30.246Z,70.97
2023-02-16T14:40:59.788Z,70.82
2023-02-16T14:43:47.526Z,70.64
2023-02-16T14:46:17.203Z,70.34
2023-02-16T14:48:56.756Z,70.38
2023-02-16T14:51:32.623Z,70.48
2023-02-16T14:54:44.551Z,70.37
2023-02-16T14:57:19.159Z,70.40
2023-02-16T14:59:52.928Z,70.30
2023-02-16T15:02:28.848Z,70.85
2023-02-16T15:04:56.230Z,70.74
2023-02-16T15:07:25.037Z,70.79
2023-02-16T15:09:57.447Z,70.72
2023-02-16T15:12:30.778Z,71.10
2023-02-16T15:15:04.543Z,71.25
2023-02-16T15:17:35.822Z,71.37
2023-02-16T15:20:17.930Z,72.00
2023-02-16T15:22:52.192Z,71.93
2023-02-16T15:25:32.735Z,71.96
2023-02-16T15:28:17.229Z,72.32
2023-02-16T15:30:52.882Z,72.82
2023-02-16T15:33:25.399Z,72.86
2023-02-16T15:36:14.276Z,72.53
2023-02-16T15:38:54.187Z,72.88
2023-02-16T15:41:37.361Z,73.36
2023-02-16T15:44:06.571Z,73.70
2023-02-16T15:46:44.393Z,73.92
2023-02-16T15:49:13.320Z,74.11
2023-02-16T15:51:41.716Z,74.52
2023-02-16T15:54:23.282Z,74.67
2023-02-16T15:56:55.255Z,75.06
2023-02-16T15:59:26.744Z,75.43
2023-02-16T16:02:04.384Z,75.13
2023-02-16T16:04:32.228Z,75.49
2023-02-16T16:07:00.340Z,75.40
2023-02-16T16:09:29.726Z,75.71
2023-02-16T16:12:05.791Z,75.81
2023-02-16T16:14:39.247Z,76.25
2023-02-16T16:17:09.012Z,76.47
2023-02-16T16:19:38.243Z,76.30
2023-02-16T16:22:34.553Z,77.52
2023-02-16T16:25:01.931Z,76.99
2023-02-16T16:27:36.688Z,77.06
2023-02-16T16:30:45.361Z,77.73
2023-02-16T16:33:14.673Z,77.29
2023-02-16T16:35:49.191Z,77.53
2023-02-16T16:38:26.048Z,77.87
2023-02-16T16:40:55.906Z,77.30
2023-02-16T16:43:28.791Z,77.61
2023-02-16T16:46:12.044Z,78.11
2023-02-16T16:48:44.793Z,78.40
2023-02-16T16:51:15.559Z,78.49
2023-02-16T16:53:57.277Z,79.09
2023-02-16T16:56:24.718Z,78.30
2023-02-16T16:58:53.848Z,78.34
2023-02-16T17:01:21.817Z,78.79
2023-02-16T17:03:49.182Z,79.13
2023-02-16T17:06:17.699Z,79.18
2023-02-16T17:08:45.242Z,79.06
2023-02-16T17:11:16.302Z,79.25
2023-02-16T17:13:43.028Z,79.03
2023-02-16T17:16:28.813Z,79.25
2023-02-16T17:18:55.505Z,79.84
2023-02-16T17:21:22.748Z,79.34
2023-02-16T17:23:53.166Z,79.78
2023-02-16T17:26:22.095Z,79.95
2023-02-16T17:28:49.608Z,79.70
2023-02-16T17:31:16.672Z,79.92
2023-02-16T17:33:43.463Z,80.48
2023-02-16T17:36:14.236Z,80.19
2023-02-16T17:38:41.077Z,80.06
2023-02-16T17:41:07.910Z,80.07
2023-02-16T17:43:34.624Z,80.74
2023-02-16T17:46:05.080Z,80.26
2023-02-16T17:48:33.173Z,81.02
2023-02-16T17:51:00.171Z,81.10
2023-02-16T17:53:27.975Z,80.93
2023-02-16T17:55:57.004Z,80.93
2023-02-16T17:58:25.484Z,81.32
2023-02-16T18:00:53.132Z,81.11
2023-02-16T18:03:20.253Z,80.92
2023-02-16T18:05:46.962Z,81.53
2023-02-16T18:08:14.052Z,81.06
2023-02-16T18:10:52.969Z,81.00
2023-02-16T18:13:20.322Z,81.16
2023-02-16T18:15:49.331Z,81.78
2023-02-16T18:18:17.893Z,81.90
2023-02-16T18:20:47.492Z,81.73
2023-02-16T18:23:14.689Z,81.80
2023-02-16T18:25:44.056Z,82.19
2023-02-16T18:28:18.622Z,82.21
2023-02-16T18:30:47.771Z,82.05
2023-02-16T18:33:15.025Z,81.65
2023-02-16T18:35:42.009Z,81.91
2023-02-16T18:38:08.855Z,81.92
2023-02-16T18:40:35.905Z,82.34
2023-02-16T18:43:02.783Z,82.43
2023-02-16T18:45:29.448Z,82.27
2023-02-16T18:47:56.322Z,82.34
2023-02-16T18:50:23.164Z,82.60
2023-02-16T18:52:49.888Z,82.55
2023-02-16T18:55:17.214Z,82.44
2023-02-16T18:57:44.166Z,82.18
2023-02-16T19:00:13.413Z,82.41
2023-02-16T19:02:41.020Z,82.67
2023-02-16T19:05:09.947Z,82.66
2023-02-16T19:07:37.176Z,82.75
2023-02-16T19:10:05.648Z,82.98
2023-02-16T19:12:32.360Z,82.67
2023-02-16T19:14:59.148Z,82.53
2023-02-16T19:17:26.951Z,82.63
2023-02-16T19:19:53.786Z,82.95
2023-02-16T19:22:20.481Z,82.65
2023-02-16T19:24:49.438Z,82.83
2023-02-16T19:27:18.219Z,83.32
2023-02-16T19:29:47.328Z,82.98
2023-02-16T19:32:14.137Z,83.26
2023-02-16T19:34:40.940Z,83.11
2023-02-16T19:37:07.781Z,83.22
2023-02-16T19:39:35.146Z,83.49
2023-02-16T19:42:02.091Z,83.48
2023-02-16T19:44:28.860Z,83.69
2023-02-16T19:46:55.712Z,83.73
2023-02-16T19:49:22.519Z,83.55
2023-02-16T19:51:49.445Z,83.72
2023-02-16T19:54:16.408Z,83.88
2023-02-16T19:56:43.141Z,83.87
2023-02-16T19:59:09.990Z,83.58
2023-02-16T20:01:36.973Z,83.98
2023-02-16T20:04:04.179Z,83.83
2023-02-16T20:06:34.004Z,83.78
2023-02-16T20:09:01.667Z,83.53
2023-02-16T20:11:30.309Z,83.63
2023-02-16T20:13:57.852Z,83.61
2023-02-16T20:16:26.381Z,84.15
2023-02-16T20:18:54.049Z,83.66
2023-02-16T20:21:26.236Z,84.25
2023-02-16T20:23:56.933Z,84.00
2023-02-16T20:26:29.311Z,84.33
2023-02-16T20:28:57.406Z,83.80
2023-02-16T20:31:32.042Z,84.04
2023-02-16T20:34:00.247Z,84.29
2023-02-16T20:36:27.682Z,83.83
2023-02-16T20:38:54.747Z,84.44
2023-02-16T20:41:22.105Z,84.31
2023-02-16T20:43:49.233Z,83.86
2023-02-16T20:46:17.073Z,84.37
2023-02-16T20:48:44.645Z,84.04
2023-02-16T20:51:13.188Z,83.88
2023-02-16T20:53:40.533Z,84.46
2023-02-16T20:56:23.003Z,84.17
2023-02-16T20:58:51.749Z,84.21
2023-02-16T21:01:22.612Z,84.40
2023-02-16T21:03:51.294Z,84.49
2023-02-16T21:06:18.271Z,84.04
2023-02-16T21:08:45.261Z,84.63
2023-02-16T21:11:12.444Z,84.36
2023-02-16T21:13:41.022Z,84.31
2023-02-16T21:16:08.933Z,84.18
2023-02-16T21:18:36.886Z,84.52
2023-02-16T21:21:05.130Z,84.24
2023-02-16T21:23:31.791Z,84.42
2023-02-16T21:26:04.001Z,84.84
2023-02-16T21:28:31.550Z,84.37
2023-02-16T21:31:04.216Z,84.32
2023-02-16T21:33:31.076Z,84.79
2023-02-16T21:36:05.549Z,84.48
2023-02-16T21:38:33.098Z,84.71
2023-02-16T21:41:23.592Z,84.44
2023-02-16T21:44:02.643Z,85.04
2023-02-16T21:46:32.719Z,84.59
2023-02-16T21:49:00.010Z,84.55
2023-02-16T21:51:34.108Z,84.67
2023-02-16T21:54:01.021Z,84.79
2023-02-16T21:56:35.015Z,84.83
2023-02-16T21:59:02.808Z,85.02
2023-02-16T22:01:32.296Z,84.67
2023-02-16T22:04:00.587Z,85.16
2023-02-16T22:06:33.844Z,84.94
2023-02-16T22:09:05.013Z,84.94
2023-02-16T22:11:31.769Z,84.54
2023-02-16T22:14:00.970Z,85.07
2023-02-16T22:16:30.371Z,85.12
2023-02-16T22:19:08.960Z,84.99
2023-02-16T22:21:37.699Z,84.99
2023-02-16T22:24:12.626Z,85.30
2023-02-16T22:26:39.788Z,84.79
2023-02-16T22:29:08.421Z,84.94
2023-02-16T22:31:36.089Z,85.10
2023-02-16T22:34:13.151Z,84.84
2023-02-16T22:36:40.373Z,84.74
2023-02-16T22:39:07.382Z,85.33
2023-02-16T22:41:35.082Z,84.95
2023-02-16T22:44:02.188Z,85.20
2023-02-16T22:46:30.026Z,85.35
2023-02-16T22:48:58.588Z,85.34
2023-02-16T22:51:29.472Z,85.41
2023-02-16T22:53:58.839Z,85.40
2023-02-16T22:56:27.002Z,85.13
2023-02-16T22:58:57.333Z,85.06
2023-02-16T23:01:24.414Z,85.22
2023-02-16T23:03:59.261Z,85.38
2023-02-16T23:06:34.811Z,85.46
2023-02-16T23:09:13.399Z,85.56
2023-02-16T23:11:40.390Z,85.49
2023-02-16T23:14:16.697Z,85.08
2023-02-16T23:16:45.428Z,85.57
2023-02-16T23:19:18.888Z,85.61
2023-02-16T23:21:47.193Z,85.60
2023-02-16T23:24:16.916Z,85.72
2023-02-16T23:26:43.789Z,85.72
2023-02-16T23:29:10.834Z,85.34
2023-02-16T23:31:40.647Z,85.75
2023-02-16T23:34:08.264Z,85.56
2023-02-16T23:36:36.784Z,85.69
2023-02-16T23:39:07.255Z,85.65
2023-02-16T23:41:34.324Z,85.97
2023-02-16T23:44:01.396Z,85.68
2023-02-16T23:46:28.671Z,85.35
2023-02-16T23:48:55.765Z,85.53
2023-02-16T23:51:22.621Z,85.66
2023-02-16T23:53:49.896Z,85.35
2023-02-16T23:56:27.973Z,85.45
2023-02-16T23:59:00.485Z,85.59
